logo
Search for airport 
image banner adimage banner adimage banner ad
image banner ad

VEDK - Dumka

Located in Asansol, India

ICAO - , IATA -

Data provided by Airmate  

General information

Coordinates: N24°13'54" E87°16'4"
Elevation is 453 feet MSL.
Magnetic variation is 0° East
View others Airports in Jharkhand

Operational data

Special qualification required
Current time UTC:
Current local time:
Weather at : - ( 0 km )
METAR: YSDU 251643Z AUTO 25013KT 9999 // SCT010 BKN073 OVC090 12/11 Q1019
View NOTAMs / SUP AIP / TFR affecting this airport [VIEW]
Communications frequencies: [VIEW]

Runways:

RWY identifierQFULength (ft)Width (ft)SurfaceLDA (ft)
0980°347973ASPH
27260°347973ASPH

Airport contact information

Address: Asansol India

Satellite view of VEDK